Time;durP1;ratioP1;P1;durP2;ratioP2;P2;SDS_P1;SDS_P2;PMS_P1;PMS_P2;Temp;Humidity;BMP_temperature;BMP_pressure;BME280_temperature;BME280_humidity;BME280_pressure;Samples;Min_cycle;Max_cycle;Signal;HPM_P1;HPM_P2
2022/01/01 00:01:21;;;;;;;19.33;9.23;;;11.80;99.90;;;;;;4987424;28;20061;-74
2022/01/01 00:03:46;;;;;;;21.65;9.68;;;11.80;99.90;;;;;;4987554;28;20047;-74
2022/01/01 00:06:12;;;;;;;26.42;9.68;;;11.80;99.90;;;;;;4987358;28;20038;-74
2022/01/01 00:08:37;;;;;;;27.40;9.43;;;11.80;99.90;;;;;;4987619;28;20037;-74
2022/01/01 00:11:03;;;;;;;23.20;8.65;;;11.80;99.90;;;;;;4987546;28;20471;-76
2022/01/01 00:13:28;;;;;;;29.88;8.90;;;12.00;99.90;;;;;;4986322;28;20027;-75
2022/01/01 00:15:54;;;;;;;23.13;7.75;;;11.90;99.90;;;;;;4987503;28;20030;-75
2022/01/01 00:18:20;;;;;;;17.73;8.07;;;11.90;99.90;;;;;;4985993;28;20062;-75
2022/01/01 00:20:45;;;;;;;21.17;8.25;;;11.90;99.90;;;;;;4985696;28;20027;-75
2022/01/01 00:23:11;;;;;;;18.42;8.38;;;11.90;99.90;;;;;;4984900;28;20435;-74
2022/01/01 00:25:36;;;;;;;28.95;9.88;;;11.90;99.90;;;;;;4987231;28;20033;-74
2022/01/01 00:28:02;;;;;;;15.52;7.72;;;11.90;99.90;;;;;;4986925;28;20037;-74
2022/01/01 00:30:28;;;;;;;21.90;8.18;;;11.90;99.90;;;;;;4987238;28;20035;-74
2022/01/01 00:32:53;;;;;;;31.08;9.40;;;11.90;99.90;;;;;;4986990;28;20122;-76
2022/01/01 00:35:19;;;;;;;24.48;8.68;;;11.80;99.90;;;;;;4986923;28;20062;-75
2022/01/01 00:37:45;;;;;;;22.10;8.93;;;11.90;99.90;;;;;;4987089;28;20033;-76
2022/01/01 00:40:11;;;;;;;21.83;8.35;;;11.90;99.90;;;;;;4986659;28;20023;-75
2022/01/01 00:42:37;;;;;;;17.77;7.80;;;11.90;99.90;;;;;;4986816;28;20046;-76
2022/01/01 00:45:04;;;;;;;21.00;8.60;;;11.90;99.90;;;;;;4985756;28;20035;-76
2022/01/01 00:47:30;;;;;;;21.40;7.95;;;11.90;99.90;;;;;;4985451;28;20102;-77
2022/01/01 00:49:55;;;;;;;19.45;7.88;;;11.90;99.90;;;;;;4986647;28;20335;-75
2022/01/01 00:52:21;;;;;;;29.75;8.73;;;11.90;99.90;;;;;;4986841;28;20046;-75
2022/01/01 00:54:46;;;;;;;24.73;7.80;;;12.00;99.90;;;;;;4986355;28;20126;-74
2022/01/01 00:57:12;;;;;;;24.40;8.07;;;11.90;99.90;;;;;;4985133;28;20026;-75
2022/01/01 00:59:38;;;;;;;25.10;8.50;;;11.90;99.90;;;;;;4986368;28;20030;-76
2022/01/01 01:02:03;;;;;;;34.28;10.52;;;11.80;99.90;;;;;;4986128;28;20042;-75
2022/01/01 01:04:29;;;;;;;27.00;8.90;;;11.90;99.90;;;;;;4986781;28;20035;-76
2022/01/01 01:06:55;;;;;;;20.60;7.65;;;11.90;99.90;;;;;;4986169;28;20114;-75
2022/01/01 01:09:21;;;;;;;28.98;9.27;;;11.80;99.90;;;;;;4985166;28;20411;-75
2022/01/01 01:11:51;;;;;;;25.98;8.30;;;11.90;99.90;;;;;;4986287;28;20395;-74
2022/01/01 01:14:22;;;;;;;20.48;7.80;;;11.90;99.90;;;;;;4984554;28;20035;-76
2022/01/01 01:16:49;;;;;;;31.85;8.43;;;11.90;99.90;;;;;;4986537;28;20023;-74
2022/01/01 01:19:15;;;;;;;17.05;8.80;;;11.90;99.90;;;;;;4986259;28;20063;-76
2022/01/01 01:21:41;;;;;;;27.65;8.35;;;11.90;99.90;;;;;;4985538;28;20023;-74
2022/01/01 01:24:07;;;;;;;26.33;10.48;;;12.00;99.90;;;;;;4985984;28;20069;-77
2022/01/01 01:26:33;;;;;;;19.05;8.88;;;11.90;99.90;;;;;;4985887;28;20039;-76
2022/01/01 01:29:01;;;;;;;31.20;9.55;;;11.90;99.90;;;;;;4985717;28;20049;-75
2022/01/01 01:31:29;;;;;;;21.50;7.97;;;11.90;99.90;;;;;;4986222;28;20027;-76
2022/01/01 01:33:54;;;;;;;19.48;8.52;;;11.90;99.90;;;;;;4984105;28;20034;-75
2022/01/01 01:36:20;;;;;;;24.73;8.23;;;11.80;99.90;;;;;;4984185;28;20055;-74
2022/01/01 01:38:45;;;;;;;28.20;8.95;;;11.90;99.90;;;;;;4985724;28;20038;-75
2022/01/01 01:41:11;;;;;;;26.05;8.52;;;11.80;99.90;;;;;;4985686;28;20030;-75
2022/01/01 01:43:38;;;;;;;20.40;8.48;;;11.90;99.90;;;;;;4984163;28;20094;-76
2022/01/01 01:46:05;;;;;;;15.95;7.57;;;11.80;99.90;;;;;;4985311;28;20078;-75
2022/01/01 01:48:33;;;;;;;23.20;8.07;;;11.80;99.90;;;;;;4984258;28;20030;-77
2022/01/01 01:51:00;;;;;;;24.17;7.65;;;11.90;99.90;;;;;;4985717;28;20201;-76
2022/01/01 01:53:33;;;;;;;24.85;8.13;;;11.90;99.90;;;;;;4985883;28;20110;-76
2022/01/01 01:56:00;;;;;;;20.05;7.88;;;11.90;99.90;;;;;;4985800;28;20078;-75
2022/01/01 01:58:29;;;;;;;34.05;7.15;;;11.80;99.90;;;;;;4985823;28;20440;-76
2022/01/01 02:01:20;;;;;;;15.35;7.63;;;11.90;99.90;;;;;;4984472;28;20511;-75
2022/01/01 02:03:49;;;;;;;20.98;6.32;;;11.90;99.90;;;;;;4985090;28;20062;-73
2022/01/01 02:06:18;;;;;;;22.25;7.35;;;11.90;99.90;;;;;;4984499;28;20114;-77
2022/01/01 02:08:44;;;;;;;20.20;7.78;;;11.80;99.90;;;;;;4984315;28;20043;-74
2022/01/01 02:11:10;;;;;;;17.02;7.22;;;11.80;99.90;;;;;;4985117;28;20027;-74
2022/01/01 02:14:01;;;;;;;11.98;6.55;;;11.80;99.90;;;;;;4984306;28;20031;-74
2022/01/01 02:18:48;;;;;;;21.20;7.53;;;11.80;99.90;;;;;;4985290;28;20107;-74
2022/01/01 02:21:14;;;;;;;17.00;5.55;;;11.80;99.90;;;;;;4985871;28;20023;-74
2022/01/01 02:23:45;;;;;;;21.15;6.65;;;11.80;99.90;;;;;;4985597;28;20046;-74
2022/01/01 02:26:12;;;;;;;21.20;6.22;;;11.80;99.90;;;;;;4985150;28;20023;-74
2022/01/01 02:28:43;;;;;;;18.13;7.03;;;11.80;99.90;;;;;;4985506;28;20159;-75
2022/01/01 02:31:09;;;;;;;27.25;8.43;;;11.80;99.90;;;;;;4985286;28;20037;-76
2022/01/01 02:33:36;;;;;;;21.73;6.57;;;11.80;99.90;;;;;;4985267;28;20023;-75
2022/01/01 02:36:03;;;;;;;24.98;7.47;;;11.80;99.90;;;;;;4985609;28;20034;-75
2022/01/01 02:38:28;;;;;;;18.73;7.45;;;11.80;99.90;;;;;;4985260;28;20530;-75
2022/01/01 02:40:54;;;;;;;24.23;7.55;;;11.80;99.90;;;;;;4985097;28;20034;-74
2022/01/01 02:43:19;;;;;;;16.40;6.47;;;11.80;99.90;;;;;;4985271;28;20047;-74
2022/01/01 02:45:45;;;;;;;18.90;6.57;;;11.70;99.90;;;;;;4984351;28;20038;-75
2022/01/01 02:48:14;;;;;;;19.13;8.07;;;11.80;99.90;;;;;;4987543;28;20027;-75
2022/01/01 02:50:39;;;;;;;22.30;7.60;;;11.80;99.90;;;;;;4988907;28;20069;-74
2022/01/01 02:53:12;;;;;;;25.02;6.97;;;11.80;99.90;;;;;;4988642;28;20035;-76
2022/01/01 02:55:39;;;;;;;35.92;9.13;;;11.80;99.90;;;;;;4989025;28;20031;-74
2022/01/01 02:58:05;;;;;;;21.85;7.85;;;11.80;99.90;;;;;;4988860;28;20050;-74
2022/01/01 03:00:31;;;;;;;19.05;7.97;;;11.80;99.90;;;;;;4988517;28;20023;-75
2022/01/01 03:02:56;;;;;;;32.47;9.15;;;11.90;99.90;;;;;;4988769;28;20166;-74
2022/01/01 03:05:22;;;;;;;19.77;7.72;;;11.80;99.90;;;;;;4988745;28;20037;-73
2022/01/01 03:07:48;;;;;;;23.95;8.25;;;11.80;99.90;;;;;;4988471;28;20031;-74
2022/01/01 03:10:19;;;;;;;19.02;8.27;;;11.90;99.90;;;;;;4987396;28;20027;-74
2022/01/01 03:12:45;;;;;;;18.25;7.63;;;11.80;99.90;;;;;;4988276;28;20038;-75
2022/01/01 03:15:11;;;;;;;28.17;8.75;;;11.80;99.90;;;;;;4987059;28;20027;-72
2022/01/01 03:17:36;;;;;;;19.90;7.88;;;11.80;99.90;;;;;;4988785;28;20052;-73
2022/01/01 03:20:03;;;;;;;23.25;8.68;;;11.80;99.90;;;;;;4988227;28;20077;-74
2022/01/01 03:22:29;;;;;;;30.92;9.65;;;11.80;99.90;;;;;;4987825;28;20108;-75
2022/01/01 03:24:54;;;;;;;22.65;9.90;;;11.80;99.90;;;;;;4987191;28;20130;-74
2022/01/01 03:27:20;;;;;;;24.50;8.32;;;11.80;99.90;;;;;;4988112;28;20573;-74
2022/01/01 03:29:46;;;;;;;30.92;9.50;;;11.80;99.90;;;;;;4988298;28;20034;-75
2022/01/01 03:32:21;;;;;;;19.98;9.55;;;11.80;99.90;;;;;;4988163;28;20057;-75
2022/01/01 03:34:46;;;;;;;27.92;8.35;;;11.80;99.90;;;;;;4986699;28;20082;-74
2022/01/01 03:37:12;;;;;;;27.58;7.15;;;11.70;99.90;;;;;;4987619;28;20035;-75
2022/01/01 03:39:37;;;;;;;24.20;7.30;;;11.80;99.90;;;;;;4986689;28;20027;-73
2022/01/01 03:42:03;;;;;;;31.90;7.57;;;11.70;99.90;;;;;;4987965;28;20027;-73
2022/01/01 03:44:33;;;;;;;24.80;7.60;;;11.80;99.90;;;;;;4986814;28;20113;-75
2022/01/01 03:47:09;;;;;;;26.33;7.43;;;11.70;99.90;;;;;;4987895;28;20025;-75
2022/01/01 03:49:36;;;;;;;18.20;7.32;;;11.70;99.90;;;;;;4986585;28;20423;-74
2022/01/01 03:52:03;;;;;;;29.08;8.15;;;11.80;99.90;;;;;;4988003;28;20125;-73
2022/01/01 03:54:29;;;;;;;21.58;7.05;;;11.80;99.90;;;;;;4987858;28;20035;-73
2022/01/01 03:56:54;;;;;;;30.55;8.27;;;11.70;99.90;;;;;;4987555;28;20507;-73
2022/01/01 03:59:20;;;;;;;32.78;7.75;;;11.70;99.90;;;;;;4987737;28;20030;-73
2022/01/01 04:01:46;;;;;;;26.30;7.05;;;11.70;99.90;;;;;;4987095;28;20059;-73
2022/01/01 04:04:12;;;;;;;18.85;7.15;;;11.70;99.90;;;;;;4987516;28;20046;-74
2022/01/01 04:06:38;;;;;;;19.00;6.65;;;11.70;99.90;;;;;;4986221;28;20099;-73
2022/01/01 04:09:04;;;;;;;22.45;6.45;;;11.70;99.90;;;;;;4987399;28;20467;-73
2022/01/01 04:11:30;;;;;;;17.75;6.72;;;11.70;99.90;;;;;;4987821;28;20057;-76
2022/01/01 04:13:56;;;;;;;19.15;7.68;;;11.70;99.90;;;;;;4987632;28;20441;-73
2022/01/01 04:16:22;;;;;;;22.67;7.10;;;11.70;99.90;;;;;;4985843;28;20027;-74
2022/01/01 04:18:49;;;;;;;18.25;6.82;;;11.70;99.90;;;;;;4985738;28;20475;-75
2022/01/01 04:21:16;;;;;;;22.95;7.40;;;11.70;99.90;;;;;;4985793;28;20027;-75
2022/01/01 04:23:44;;;;;;;14.95;6.43;;;11.70;99.90;;;;;;4987100;28;20027;-75
2022/01/01 04:26:10;;;;;;;25.05;6.25;;;11.70;99.90;;;;;;4987279;28;20110;-73
2022/01/01 04:28:37;;;;;;;26.75;7.38;;;11.60;99.90;;;;;;4987308;28;20031;-74
2022/01/01 04:31:03;;;;;;;15.60;5.93;;;11.60;99.90;;;;;;4985772;28;20027;-74
2022/01/01 04:33:29;;;;;;;24.15;6.05;;;11.60;99.90;;;;;;4987579;28;20027;-74
2022/01/01 04:35:55;;;;;;;24.98;6.47;;;11.70;99.90;;;;;;4986930;28;20110;-74
2022/01/01 04:40:58;;;;;;;18.20;7.22;;;11.70;99.90;;;;;;4987274;28;20026;-75
2022/01/01 04:43:23;;;;;;;18.75;6.25;;;11.60;99.90;;;;;;4986679;28;20049;-74
2022/01/01 04:45:49;;;;;;;14.70;6.75;;;11.60;99.90;;;;;;4987070;28;20597;-75
2022/01/01 04:48:15;;;;;;;25.60;6.85;;;11.60;99.90;;;;;;4985333;28;20058;-75
2022/01/01 04:50:41;;;;;;;27.05;5.72;;;11.60;99.90;;;;;;4986106;28;20093;-74
2022/01/01 04:53:06;;;;;;;31.55;7.25;;;11.70;99.90;;;;;;4987035;28;20114;-74
2022/01/01 04:55:33;;;;;;;35.72;7.93;;;11.70;99.90;;;;;;4986841;28;20032;-74
2022/01/01 04:57:58;;;;;;;29.33;8.20;;;11.60;99.90;;;;;;4986258;28;20109;-74
2022/01/01 05:00:24;;;;;;;19.55;6.80;;;11.60;99.90;;;;;;4986524;28;20062;-74
2022/01/01 05:02:50;;;;;;;25.23;7.32;;;11.60;99.90;;;;;;4986040;28;20054;-74
2022/01/01 05:05:15;;;;;;;16.75;6.68;;;11.60;99.90;;;;;;4986099;28;20106;-76
2022/01/01 05:07:43;;;;;;;25.75;6.75;;;11.60;99.90;;;;;;4986282;28;20085;-76
2022/01/01 05:10:09;;;;;;;16.35;7.13;;;11.60;99.90;;;;;;4985943;28;20026;-74
2022/01/01 05:12:35;;;;;;;26.65;9.18;;;11.60;99.90;;;;;;4985994;28;20846;-78
2022/01/01 05:15:02;;;;;;;29.25;7.85;;;11.60;99.90;;;;;;4984985;28;20509;-74
2022/01/01 05:17:27;;;;;;;23.00;9.35;;;11.60;99.90;;;;;;4985124;28;20395;-74
2022/01/01 05:19:53;;;;;;;32.70;11.25;;;11.70;99.90;;;;;;4985982;28;20083;-74
2022/01/01 05:22:18;;;;;;;31.95;9.00;;;11.50;99.90;;;;;;4986378;28;20027;-72
2022/01/01 05:24:44;;;;;;;34.70;10.07;;;11.60;99.90;;;;;;4986299;28;20046;-74
2022/01/01 05:27:13;;;;;;;25.27;9.70;;;11.60;99.90;;;;;;4984626;28;20039;-73
2022/01/01 05:29:38;;;;;;;34.13;9.43;;;11.50;99.90;;;;;;4984809;28;20103;-73
2022/01/01 05:32:04;;;;;;;32.63;10.45;;;11.60;99.90;;;;;;4986012;28;20027;-73
2022/01/01 05:34:30;;;;;;;30.23;10.13;;;11.50;99.90;;;;;;4986032;28;20097;-74
2022/01/01 05:36:55;;;;;;;33.65;9.10;;;11.50;99.90;;;;;;4986197;28;20050;-73
2022/01/01 05:39:21;;;;;;;33.40;11.05;;;11.50;99.90;;;;;;4985572;28;20030;-73
2022/01/01 05:41:47;;;;;;;24.63;10.18;;;11.50;99.90;;;;;;4984565;28;20034;-74
2022/01/01 05:44:12;;;;;;;31.02;10.25;;;11.50;99.90;;;;;;4985995;28;20049;-72
2022/01/01 05:46:38;;;;;;;23.27;9.63;;;11.50;99.90;;;;;;4985779;28;20030;-73
2022/01/01 05:49:03;;;;;;;35.65;12.45;;;11.50;99.90;;;;;;4985738;28;20487;-72
2022/01/01 05:51:30;;;;;;;35.35;10.50;;;11.50;99.90;;;;;;4985792;28;20082;-73
2022/01/01 05:53:56;;;;;;;40.97;12.10;;;11.50;99.90;;;;;;4984901;28;20019;-73
2022/01/01 05:56:21;;;;;;;35.38;11.82;;;11.50;99.90;;;;;;4984283;28;20035;-72
2022/01/01 05:58:47;;;;;;;32.45;11.68;;;11.50;99.90;;;;;;4985944;28;20058;-72
2022/01/01 06:01:12;;;;;;;35.60;13.10;;;11.50;99.90;;;;;;4985388;28;20031;-73
2022/01/01 06:03:38;;;;;;;50.95;15.02;;;11.50;99.90;;;;;;4985388;28;20092;-74
2022/01/01 06:06:04;;;;;;;44.97;14.13;;;11.50;99.90;;;;;;4985851;28;20101;-73
2022/01/01 06:08:29;;;;;;;56.67;13.88;;;11.50;99.90;;;;;;4984086;28;20037;-73
2022/01/01 06:10:56;;;;;;;42.47;15.35;;;11.50;99.90;;;;;;4985661;28;20042;-76
2022/01/01 06:13:21;;;;;;;41.83;15.20;;;11.50;99.90;;;;;;4985559;28;20065;-72
2022/01/01 06:15:47;;;;;;;44.63;15.50;;;11.50;99.90;;;;;;4985457;28;20038;-72
2022/01/01 06:18:12;;;;;;;35.22;14.63;;;11.60;99.90;;;;;;4985594;28;20100;-73
2022/01/01 06:20:38;;;;;;;41.60;14.52;;;11.50;99.90;;;;;;4985486;28;20046;-72
2022/01/01 06:23:06;;;;;;;44.78;16.35;;;11.60;99.90;;;;;;4989193;28;20066;-72
2022/01/01 06:25:32;;;;;;;45.60;14.98;;;11.50;99.90;;;;;;4989653;28;20023;-74
2022/01/01 06:27:58;;;;;;;47.50;15.38;;;11.50;99.90;;;;;;4987840;28;20432;-73
2022/01/01 06:30:24;;;;;;;49.97;16.17;;;11.50;99.90;;;;;;4988975;28;20030;-73
2022/01/01 06:32:51;;;;;;;36.85;14.40;;;11.50;99.90;;;;;;4989471;28;20038;-73
2022/01/01 06:35:17;;;;;;;41.40;16.63;;;11.50;99.90;;;;;;4989287;28;20489;-73
2022/01/01 06:37:42;;;;;;;58.90;16.63;;;11.60;99.90;;;;;;4988930;28;20030;-73
2022/01/01 06:40:08;;;;;;;45.50;15.15;;;11.60;99.90;;;;;;4989392;28;20031;-73
2022/01/01 06:42:34;;;;;;;42.92;17.02;;;11.60;99.90;;;;;;4987524;28;20034;-72
2022/01/01 06:45:00;;;;;;;47.05;16.67;;;11.60;99.90;;;;;;4988895;28;20463;-72
2022/01/01 06:47:32;;;;;;;51.20;17.80;;;11.60;99.90;;;;;;4989024;28;20045;-74
2022/01/01 06:49:58;;;;;;;61.42;19.00;;;11.60;99.90;;;;;;4987296;28;20090;-72
2022/01/01 06:52:24;;;;;;;47.63;16.83;;;11.50;99.90;;;;;;4989061;28;21090;-74
2022/01/01 06:54:49;;;;;;;51.47;17.13;;;11.60;99.90;;;;;;4988899;28;20507;-73
2022/01/01 06:57:15;;;;;;;59.53;18.98;;;11.60;99.90;;;;;;4988468;28;20043;-73
2022/01/01 06:59:40;;;;;;;53.97;16.55;;;11.60;99.90;;;;;;4988903;28;20109;-72
2022/01/01 07:02:06;;;;;;;49.42;18.83;;;11.60;99.90;;;;;;4987861;28;20542;-72
2022/01/01 07:04:32;;;;;;;67.30;20.48;;;11.50;99.90;;;;;;4988183;28;20071;-73
2022/01/01 07:06:57;;;;;;;50.00;18.48;;;11.50;99.90;;;;;;4988704;28;20051;-72
2022/01/01 07:09:23;;;;;;;59.60;19.52;;;11.60;99.90;;;;;;4988682;28;20027;-72
2022/01/01 07:11:50;;;;;;;77.20;20.85;;;11.60;99.90;;;;;;4987375;28;20042;-73
2022/01/01 07:14:16;;;;;;;53.72;19.10;;;11.60;99.90;;;;;;4986679;28;20038;-74
2022/01/01 07:16:42;;;;;;;66.38;21.27;;;11.60;99.90;;;;;;4988544;28;20019;-73
2022/01/01 07:19:07;;;;;;;56.45;20.75;;;11.60;99.90;;;;;;4988368;28;20035;-75
2022/01/01 07:21:33;;;;;;;61.10;21.98;;;11.60;99.90;;;;;;4987958;28;20034;-73
2022/01/01 07:24:00;;;;;;;56.33;20.95;;;11.60;99.90;;;;;;4988499;28;20047;-76
2022/01/01 07:26:25;;;;;;;83.30;23.77;;;11.60;99.90;;;;;;4982261;28;20034;-74
2022/01/01 07:28:51;;;;;;;65.75;22.80;;;11.60;99.90;;;;;;4983441;28;20065;-74
2022/01/01 07:31:18;;;;;;;59.83;21.17;;;11.60;99.90;;;;;;4983451;28;20042;-74
2022/01/01 07:33:44;;;;;;;59.40;20.83;;;11.50;99.90;;;;;;4987929;28;20037;-74
2022/01/01 07:36:09;;;;;;;54.03;19.45;;;11.60;99.90;;;;;;4986903;28;20027;-76
2022/01/01 07:38:35;;;;;;;52.88;20.42;;;11.60;99.90;;;;;;4986783;28;20027;-75
2022/01/01 07:41:02;;;;;;;71.88;21.45;;;11.60;99.90;;;;;;4985514;28;20126;-75
2022/01/01 07:43:29;;;;;;;67.00;21.98;;;11.60;99.90;;;;;;4981540;28;20133;-74
2022/01/01 07:45:55;;;;;;;49.80;19.05;;;11.60;99.90;;;;;;4980760;28;20066;-73
2022/01/01 07:48:20;;;;;;;59.55;20.67;;;11.50;99.90;;;;;;4987188;28;20035;-74
2022/01/01 07:50:46;;;;;;;53.78;20.73;;;11.70;99.90;;;;;;4986072;28;20057;-74
2022/01/01 07:53:12;;;;;;;64.40;19.05;;;11.60;99.90;;;;;;4987182;28;20023;-73
2022/01/01 07:55:37;;;;;;;62.05;21.77;;;11.60;99.90;;;;;;4987452;28;20066;-74
2022/01/01 07:58:05;;;;;;;59.85;20.75;;;11.70;99.90;;;;;;4987889;28;20030;-75
2022/01/01 08:00:31;;;;;;;52.03;19.65;;;11.60;99.90;;;;;;4989124;28;20057;-74
2022/01/01 08:02:56;;;;;;;53.05;18.13;;;11.70;99.90;;;;;;4986374;28;20050;-72
2022/01/01 08:05:22;;;;;;;72.93;20.88;;;11.60;99.90;;;;;;4987432;28;20031;-74
2022/01/01 08:07:47;;;;;;;65.90;20.30;;;11.60;99.90;;;;;;4987381;28;20058;-73
2022/01/01 08:10:13;;;;;;;46.55;17.83;;;11.70;99.90;;;;;;4986345;28;20033;-74
2022/01/01 08:12:43;;;;;;;61.75;19.70;;;11.70;99.90;;;;;;4987409;28;20106;-73
2022/01/01 08:15:09;;;;;;;96.60;22.05;;;11.70;99.90;;;;;;4987323;28;20026;-73
2022/01/01 08:17:35;;;;;;;53.42;19.27;;;11.70;99.90;;;;;;4987646;28;20058;-75
2022/01/01 08:20:03;;;;;;;52.72;19.55;;;11.70;99.90;;;;;;4987103;28;20061;-74
2022/01/01 08:22:28;;;;;;;55.42;18.23;;;11.70;99.90;;;;;;4987400;28;20042;-74
2022/01/01 08:24:54;;;;;;;46.90;18.02;;;11.70;99.90;;;;;;4986677;28;20027;-74
2022/01/01 08:27:20;;;;;;;66.55;19.20;;;11.70;99.90;;;;;;4986777;28;20522;-74
2022/01/01 08:29:46;;;;;;;43.35;16.77;;;11.70;99.90;;;;;;4987214;28;20431;-75
2022/01/01 08:32:11;;;;;;;51.17;18.13;;;11.70;99.90;;;;;;4987074;28;20027;-74
2022/01/01 08:34:38;;;;;;;59.15;20.02;;;11.70;99.90;;;;;;4985534;28;20050;-74
2022/01/01 08:37:04;;;;;;;69.93;20.10;;;11.70;99.90;;;;;;4987090;28;20038;-74
2022/01/01 08:39:30;;;;;;;47.58;19.35;;;11.70;99.90;;;;;;4987194;28;20046;-74
2022/01/01 08:41:55;;;;;;;58.78;19.23;;;11.70;99.90;;;;;;4986982;28;20038;-74
2022/01/01 08:44:22;;;;;;;49.75;17.67;;;11.70;99.90;;;;;;4985413;28;20050;-73
2022/01/01 08:46:47;;;;;;;42.85;15.57;;;11.70;99.90;;;;;;4985439;28;20098;-75
2022/01/01 08:49:13;;;;;;;47.90;18.80;;;11.80;99.90;;;;;;4986331;28;20023;-73
2022/01/01 08:51:42;;;;;;;48.42;18.77;;;11.70;99.90;;;;;;4985233;28;20054;-75
2022/01/01 08:54:08;;;;;;;46.17;17.98;;;11.70;99.90;;;;;;4986528;28;20022;-75
2022/01/01 08:56:35;;;;;;;48.00;16.02;;;11.70;99.90;;;;;;4986682;28;20424;-74
2022/01/01 08:59:01;;;;;;;45.80;15.07;;;11.60;99.90;;;;;;4985719;28;20054;-74
2022/01/01 09:01:27;;;;;;;36.53;13.18;;;11.70;99.90;;;;;;4985085;28;20491;-74
2022/01/01 09:03:53;;;;;;;41.40;15.15;;;11.70;99.90;;;;;;4985064;28;20053;-74
2022/01/01 09:06:19;;;;;;;53.33;15.85;;;11.70;99.90;;;;;;4986459;28;20035;-75
2022/01/01 09:08:44;;;;;;;46.30;13.93;;;11.70;99.90;;;;;;4984773;28;20031;-74
2022/01/01 09:11:12;;;;;;;39.22;15.48;;;11.70;99.90;;;;;;4983533;28;20054;-74
2022/01/01 09:13:41;;;;;;;41.38;13.57;;;11.70;99.90;;;;;;4978740;28;20039;-74
2022/01/01 09:16:10;;;;;;;42.78;14.60;;;11.70;99.90;;;;;;4986290;28;20240;-75
2022/01/01 09:18:41;;;;;;;35.83;13.20;;;11.70;99.90;;;;;;4984041;28;20027;-75
2022/01/01 09:21:08;;;;;;;28.35;13.10;;;11.80;99.90;;;;;;4984388;28;20132;-74
2022/01/01 09:23:35;;;;;;;32.55;13.73;;;11.80;99.90;;;;;;4985012;28;20043;-74
2022/01/01 09:26:01;;;;;;;55.83;16.17;;;11.80;99.90;;;;;;4984396;28;20616;-74
2022/01/01 09:28:32;;;;;;;40.63;12.38;;;11.80;99.90;;;;;;4986180;28;20082;-74
2022/01/01 09:30:59;;;;;;;51.38;15.00;;;11.80;99.90;;;;;;4984519;28;20063;-74
2022/01/01 09:33:29;;;;;;;40.35;12.88;;;11.90;99.90;;;;;;4986300;28;20026;-73
2022/01/01 09:35:56;;;;;;;32.28;12.77;;;11.90;99.90;;;;;;4985213;28;20023;-73
2022/01/01 09:38:26;;;;;;;33.72;11.38;;;11.90;99.90;;;;;;4976482;28;20054;-74
2022/01/01 09:40:54;;;;;;;31.08;13.32;;;11.90;99.90;;;;;;4977406;28;20769;-74
2022/01/01 09:43:21;;;;;;;32.28;12.40;;;12.00;99.90;;;;;;4982683;28;20031;-74
2022/01/01 09:45:49;;;;;;;29.95;11.20;;;11.90;99.90;;;;;;4983551;28;20071;-74
2022/01/01 09:48:16;;;;;;;30.50;11.00;;;12.00;99.90;;;;;;4985196;28;20030;-74
2022/01/01 09:50:46;;;;;;;38.22;11.77;;;12.10;99.90;;;;;;4982781;28;20051;-75
2022/01/01 09:53:11;;;;;;;33.83;10.93;;;12.00;99.90;;;;;;4980017;28;20035;-76
2022/01/01 09:55:37;;;;;;;42.13;11.20;;;12.10;99.90;;;;;;4978616;28;20120;-76
2022/01/01 09:58:02;;;;;;;33.20;12.32;;;12.10;99.90;;;;;;4979492;28;20042;-74
2022/01/01 10:00:33;;;;;;;45.08;11.90;;;12.10;99.90;;;;;;4981462;28;21865;-74
2022/01/01 10:02:59;;;;;;;39.92;12.32;;;12.10;99.90;;;;;;4984171;28;20047;-76
2022/01/01 10:05:24;;;;;;;35.85;10.88;;;12.10;99.90;;;;;;4984493;28;20039;-73
2022/01/01 10:07:50;;;;;;;25.60;9.90;;;12.10;99.90;;;;;;4983511;28;20023;-74
2022/01/01 10:10:25;;;;;;;40.70;10.65;;;12.00;99.90;;;;;;4985852;28;20035;-74
2022/01/01 10:12:51;;;;;;;32.83;10.05;;;12.10;99.90;;;;;;4985402;28;20023;-74
2022/01/01 10:15:17;;;;;;;35.42;11.98;;;12.10;99.90;;;;;;4983008;28;20071;-73
2022/01/01 10:17:43;;;;;;;29.83;10.27;;;12.10;99.90;;;;;;4980628;28;20099;-73
2022/01/01 10:20:10;;;;;;;30.60;11.55;;;12.10;99.90;;;;;;4971899;28;20070;-76
2022/01/01 10:22:38;;;;;;;28.50;11.15;;;12.10;99.90;;;;;;4981112;28;20089;-74
2022/01/01 10:28:05;;;;;;;30.45;10.05;;;12.20;99.90;;;;;;4979535;28;20089;-74
2022/01/01 10:30:39;;;;;;;30.77;9.90;;;12.10;99.90;;;;;;4982600;28;20480;-74
2022/01/01 10:33:18;;;;;;;23.75;10.38;;;12.20;99.90;;;;;;4983578;28;20055;-73
2022/01/01 10:35:47;;;;;;;27.85;10.50;;;12.20;99.90;;;;;;4982477;28;20031;-73
2022/01/01 10:38:17;;;;;;;28.92;10.32;;;12.20;99.90;;;;;;4980465;28;20059;-73
2022/01/01 10:40:44;;;;;;;35.08;9.85;;;12.20;99.90;;;;;;4977164;28;20118;-73
2022/01/01 10:43:10;;;;;;;26.98;9.82;;;12.20;99.90;;;;;;4981278;28;20403;-72
2022/01/01 10:45:36;;;;;;;27.17;11.75;;;12.30;99.90;;;;;;4985623;28;20113;-74
2022/01/01 10:48:23;;;;;;;29.00;9.77;;;12.40;99.90;;;;;;4985192;28;20039;-74
2022/01/01 10:50:51;;;;;;;24.92;11.07;;;12.40;99.90;;;;;;4976887;28;20106;-73
2022/01/01 10:53:21;;;;;;;24.13;10.48;;;12.40;99.90;;;;;;4985477;28;20034;-74
2022/01/01 10:55:59;;;;;;;32.25;10.38;;;12.40;99.90;;;;;;4971850;28;20035;-74
2022/01/01 10:58:31;;;;;;;33.47;10.43;;;12.40;99.90;;;;;;4979643;28;20034;-74
2022/01/01 11:01:04;;;;;;;25.40;9.50;;;12.40;99.90;;;;;;4977839;28;20619;-73
2022/01/01 11:03:47;;;;;;;32.88;12.20;;;12.40;99.90;;;;;;4963678;28;20400;-74
2022/01/01 11:06:17;;;;;;;37.75;16.77;;;12.40;99.90;;;;;;4978259;28;20058;-74
2022/01/01 11:08:45;;;;;;;32.97;12.40;;;12.40;99.90;;;;;;4976612;28;20543;-73
2022/01/01 11:11:22;;;;;;;28.20;12.10;;;12.40;99.90;;;;;;4988604;28;20513;-74
2022/01/01 11:13:48;;;;;;;38.22;15.25;;;12.40;99.90;;;;;;4973049;28;20035;-74
2022/01/01 11:16:19;;;;;;;36.38;12.10;;;12.40;99.90;;;;;;4980305;28;20027;-75
2022/01/01 11:18:45;;;;;;;33.47;12.20;;;12.50;99.90;;;;;;4969266;28;20043;-74
2022/01/01 11:21:11;;;;;;;34.00;11.38;;;12.50;99.90;;;;;;4983745;28;20033;-76
2022/01/01 11:23:38;;;;;;;30.08;11.48;;;12.50;99.90;;;;;;4986403;28;20039;-73
2022/01/01 11:26:04;;;;;;;33.25;11.13;;;12.60;99.90;;;;;;4984826;28;20534;-75
2022/01/01 11:28:34;;;;;;;28.33;10.65;;;12.60;99.90;;;;;;4987033;28;20030;-75
2022/01/01 11:31:03;;;;;;;27.45;10.38;;;12.60;99.90;;;;;;4986950;28;20023;-74
2022/01/01 11:33:36;;;;;;;25.13;10.10;;;12.70;99.90;;;;;;4987194;28;20074;-74
2022/01/01 11:36:04;;;;;;;22.58;9.40;;;12.70;99.90;;;;;;4969147;28;20031;-76
2022/01/01 11:38:33;;;;;;;28.90;10.55;;;12.80;99.90;;;;;;4968228;28;20028;-74
2022/01/01 11:41:03;;;;;;;33.22;10.07;;;12.80;99.90;;;;;;4968550;28;20027;-74
2022/01/01 11:43:38;;;;;;;37.15;11.73;;;12.90;99.90;;;;;;4967734;28;20070;-74
2022/01/01 11:46:05;;;;;;;25.77;9.82;;;12.90;99.90;;;;;;4968821;28;20035;-74
2022/01/01 11:48:35;;;;;;;29.27;11.93;;;13.00;99.90;;;;;;4968869;28;20023;-73
2022/01/01 11:51:38;;;;;;;30.05;10.75;;;13.10;99.90;;;;;;4968599;28;20043;-73
2022/01/01 11:54:31;;;;;;;27.00;10.90;;;13.20;99.90;;;;;;4967621;29;20058;-74
2022/01/01 11:57:02;;;;;;;24.95;10.82;;;13.30;99.90;;;;;;4968585;28;20035;-73
2022/01/01 11:59:37;;;;;;;26.95;10.48;;;13.60;99.90;;;;;;4967142;28;20078;-74
2022/01/01 12:02:18;;;;;;;26.00;11.43;;;14.00;99.90;;;;;;4968459;28;20087;-74
2022/01/01 12:04:54;;;;;;;20.75;9.15;;;14.30;99.90;;;;;;4968584;28;20043;-74
2022/01/01 12:07:19;;;;;;;42.00;12.27;;;14.20;99.90;;;;;;4975231;28;20117;-73
2022/01/01 12:10:05;;;;;;;20.17;10.48;;;14.10;99.90;;;;;;4972776;28;20031;-75
2022/01/01 12:12:51;;;;;;;27.80;11.00;;;14.10;99.90;;;;;;4985544;28;20030;-75
2022/01/01 12:15:27;;;;;;;29.23;10.95;;;14.10;99.90;;;;;;4987633;28;20043;-74
2022/01/01 12:18:06;;;;;;;19.27;9.10;;;14.10;99.90;;;;;;4986841;28;20026;-74
2022/01/01 12:20:31;;;;;;;23.52;10.02;;;14.20;99.90;;;;;;4986192;28;20027;-75
2022/01/01 12:22:58;;;;;;;31.33;9.10;;;14.30;99.90;;;;;;4987460;28;20053;-74
2022/01/01 12:25:27;;;;;;;34.22;9.68;;;14.50;99.90;;;;;;4987255;28;20058;-75
2022/01/01 12:27:54;;;;;;;26.75;9.85;;;14.60;99.90;;;;;;4987015;28;20471;-72
2022/01/01 12:30:42;;;;;;;18.38;7.82;;;14.70;99.90;;;;;;4985261;28;20030;-74
2022/01/01 12:33:19;;;;;;;22.00;9.45;;;14.80;99.90;;;;;;4987062;28;20035;-75
2022/01/01 12:35:50;;;;;;;23.55;8.38;;;14.70;99.90;;;;;;4984035;28;20030;-74
2022/01/01 12:38:26;;;;;;;17.90;8.13;;;14.60;99.90;;;;;;4985209;28;20030;-74
2022/01/01 12:41:19;;;;;;;19.33;8.00;;;14.50;99.90;;;;;;4984664;28;20041;-74